Buoy 53520

sailwx.info

Track history (hours):
 
Tides and Currents Weather Stations Pressure Air Temp Water Temp Dewpoint Dewpoint Depression Visibility Wind Speed Wind Dir Waves Ship Positions

Drifting buoy 53520

Last reported at 2017-Dec-11 03:00 UTC. Time now 2017-Dec-11 04:14 UTC.
Position S 36°34' E 021°13'.

Barometer 1019.1 mb
Water temperature 19.6 ° C

Date/timePositionNaut miles runAvg speedWind from/ knotsBaromVisibWave heightAir tempDewpointWater temp
2017-Dec-11 03:00S 36°34' E 021°13'1 0.8 1019.1 19.6
2017-Dec-11 02:00S 36°34' E 021°13'1 0.8 1019.2 19.6
2017-Dec-11 01:00S 36°34' E 021°14'0 0.0 1019.8 19.6
2017-Dec-11 00:00S 36°34' E 021°14'0 0.5 1020.0 19.6
2017-Dec-10 23:00S 36°34' E 021°14'0 0.2 1020.6 19.7
2017-Dec-10 21:00S 36°34' E 021°15'1 0.8 1021.4 19.7
2017-Dec-10 20:00S 36°34' E 021°16'1 1.1 1022.0 19.7
2017-Dec-10 19:00S 36°34' E 021°17'0 0.5 1022.1 19.7
2017-Dec-10 18:00S 36°34' E 021°16'0 0.5 1022.2 19.7
2017-Dec-10 17:00S 36°34' E 021°17'1 0.8 1022.0 19.7
2017-Dec-10 16:00S 36°35' E 021°17'0 0.5 1021.8 19.7
2017-Dec-10 15:00S 36°35' E 021°18'0 0.0 1021.7 19.8
2017-Dec-10 14:00S 36°35' E 021°18'3 1.7 1021.9 19.9
2017-Dec-10 12:00S 36°35' E 021°22'2 0.4 1023.2 19.9
2017-Dec-10 07:00S 36°37' E 021°23'0 0.5 1024.8 19.5
2017-Dec-10 06:00S 36°37' E 021°23'1 0.6 1025.1 19.5
2017-Dec-10 05:00S 36°38' E 021°23'0 0.5 1024.8 19.5
2017-Dec-10 04:00S 36°38' E 021°24'1 0.8 1024.7 19.5
2017-Dec-10 03:00S 36°38' E 021°25'0 0.0 1024.6 19.5
2017-Dec-10 02:00S 36°38' E 021°25'1 1.2 1024.4 19.6
2017-Dec-10 01:00S 36°40' E 021°25'0 0.0 1024.5 19.6
2017-Dec-10 00:00S 36°40' E 021°25'0 0.0 1024.7 19.7
2017-Dec-09 23:00S 36°40' E 021°25'1 0.6 1025.2 19.7
2017-Dec-09 21:00S 36°41' E 021°25'1 0.6 1025.5 19.8
2017-Dec-09 20:00S 36°41' E 021°25'1 0.8 1025.6 19.9
2017-Dec-09 19:00S 36°41' E 021°25'1 0.8 1025.0 19.9
2017-Dec-09 18:00S 36°41' E 021°25'0 0.5 1024.5 20.0
2017-Dec-09 17:00S 36°41' E 021°26'1 0.6 1024.0 20.1
2017-Dec-09 16:00S 36°42' E 021°26'1 1.0 1023.4 20.2
2017-Dec-09 15:00S 36°42' E 021°27'1 0.6 1023.1 20.3
2017-Dec-09 14:00S 36°43' E 021°27'0 0.0 1022.9 20.4
2017-Dec-09 13:00S 36°43' E 021°27'0 0.0 1022.8 20.4
2017-Dec-09 12:00S 36°43' E 021°27'2 0.6 1022.7 20.4
2017-Dec-09 09:00S 36°44' E 021°29'2 1.9 1021.6 20.4
2017-Dec-09 08:00S 36°45' E 021°31'1 0.4 1021.1 20.2
2017-Dec-09 06:00S 36°46' E 021°30'1 1.1 1019.5 19.9
2017-Dec-09 05:00S 36°46' E 021°31'0 0.0 1018.3 19.8
2017-Dec-09 04:00S 36°46' E 021°31'1 1.1 1017.0 19.7
2017-Dec-09 03:00S 36°47' E 021°32'0 0.5 1015.7 19.6
2017-Dec-09 02:00S 36°47' E 021°33'0 0.5 1014.6 19.5
2017-Dec-09 01:00S 36°47' E 021°34'3 2.8 1014.0 19.4
2017-Dec-09 00:00S 36°44' E 021°35'1 0.4 1013.4 19.3
2017-Dec-08 21:00S 36°44' E 021°37'1 1.1 1012.1 19.5
2017-Dec-08 20:00S 36°43' E 021°38'1 1.1 1011.8 19.6
2017-Dec-08 19:00S 36°43' E 021°39'2 1.5 1011.2 19.8
2017-Dec-08 18:00S 36°41' E 021°40'1 1.1 1010.5 19.9
2017-Dec-08 17:00S 36°41' E 021°41'0 0.0 1010.5 20.3
2017-Dec-08 16:00S 36°41' E 021°41'1 1.3 1009.8 20.3
2017-Dec-08 15:00S 36°40' E 021°42'0 0.5 1010.4 20.2
2017-Dec-08 14:00S 36°40' E 021°43'1 1.2 1010.6 20.0
2017-Dec-08 13:00S 36°38' E 021°43'9 1.8 1010.9 19.8
2017-Dec-08 08:00S 36°30' E 021°47'1 1.3 1013.0 19.3
2017-Dec-08 07:00S 36°29' E 021°46'3 2.8 1012.6 19.0
2017-Dec-08 06:00S 36°26' E 021°48'1 0.6 1013.2 18.9
2017-Dec-08 05:00S 36°26' E 021°48'2 2.3 1013.5 18.8
2017-Dec-08 04:00S 36°24' E 021°50'2 2.4 1013.7 18.8
2017-Dec-08 03:00S 36°22' E 021°50'0 0.0 1013.8 18.8
2017-Dec-08 02:00S 36°22' E 021°50'13 6.4 1014.0 18.8
2017-Dec-08 00:00S 36°09' E 021°53'0 0.0 1015.0 18.9
2017-Dec-07 22:00S 36°09' E 021°53'0 0.0 1016.7 19.3
2017-Dec-07 21:00S 36°09' E 021°53'4 4.3 1016.8 19.3
2017-Dec-07 20:00S 36°05' E 021°54'4 3.7 1016.9 19.4
2017-Dec-07 19:00S 36°01' E 021°55'6 6.3 1016.6 19.5
2017-Dec-07 18:00S 35°55' E 021°58'0 0.0 1016.2 19.9
2017-Dec-07 17:00S 35°55' E 021°58'3 2.8 1015.5 20.2
2017-Dec-07 16:00S 35°53' E 021°59'1110.5 1015.4 20.5
2017-Dec-07 15:00S 35°44' E 022°07'0 0.0 1015.5 20.7
2017-Dec-07 14:00S 35°44' E 022°07'0 0.0 1016.1 21.0
2017-Dec-07 13:00S 35°44' E 022°07'0 0.0 1017.0 21.2
2017-Dec-07 12:00S 35°44' E 022°07'17 4.3 1017.7 21.3
2017-Dec-07 08:00S 35°32' E 022°22'0 0.0 1018.9 21.0
2017-Dec-07 07:00S 35°32' E 022°22'5 4.5 1018.7 21.0
2017-Dec-07 06:00S 35°29' E 022°26'0 0.0 1019.2 21.1
2017-Dec-07 05:00S 35°29' E 022°26'6 5.5 1019.1 21.2
2017-Dec-07 04:00S 35°28' E 022°32'3 3.4 1019.0 21.2
2017-Dec-07 03:00S 35°28' E 022°37'0 0.5 1018.9 21.5
2017-Dec-07 02:00S 35°28' E 022°36'6 5.7 1019.9 21.6
2017-Dec-07 01:00S 35°29' E 022°43'0 0.0 1020.1 21.8
2017-Dec-07 00:00S 35°29' E 022°43'17 5.7 1020.5 21.8
2017-Dec-06 21:00S 35°37' E 023°01'3 3.2 1022.5 21.4
2017-Dec-06 20:00S 35°38' E 023°05'5 5.0 1022.5 21.3
2017-Dec-06 19:00S 35°40' E 023°11'1413.7 1022.5 21.3
2017-Dec-06 18:00S 35°36' E 023°27'0 0.0 1022.1 21.2
2017-Dec-06 17:00S 35°36' E 023°27'7 3.4 1022.2 21.4
2017-Dec-06 15:00S 35°32' E 023°34'1010.2 1022.0 21.9
2017-Dec-06 14:00S 35°26' E 023°44'0 0.0 1022.3 22.4
2017-Dec-06 13:00S 35°26' E 023°44'37 5.3 1022.9 22.6
2017-Dec-06 06:00S 35°03' E 024°20'7 6.6 1025.2 23.2
2017-Dec-06 05:00S 35°01' E 024°28'1 1.0 1025.3 23.2
2017-Dec-06 04:00S 35°01' E 024°29'6 6.2 1025.2 23.2
2017-Dec-06 03:00S 34°59' E 024°36'7 6.5 1024.9 23.2
2017-Dec-06 02:00S 34°58' E 024°44'0 0.0 1024.8 23.3
2017-Dec-06 01:00S 34°58' E 024°44'7 7.4 1024.6 23.3
2017-Dec-06 00:00S 34°58' E 024°53'16 5.5 1024.9 23.4
2017-Dec-05 21:00S 34°53' E 025°12'0 0.0 1025.9 23.4
2017-Dec-05 20:00S 34°53' E 025°12'7 7.3 1025.6 23.5
2017-Dec-05 19:00S 34°50' E 025°20'1 0.8 1025.1 23.5
2017-Dec-05 18:00S 34°50' E 025°21'8 8.2 1024.1 23.6
2017-Dec-05 17:00S 34°46' E 025°30'2 2.3 1023.5 23.6
2017-Dec-05 16:00S 34°45' E 025°32'8 8.1 1022.8 23.6
2017-Dec-05 15:00S 34°41' E 025°41'3 3.0 1022.2 23.6
2017-Dec-05 14:00S 34°40' E 025°44'0 0.0 1022.3 23.6
2017-Dec-05 13:00S 34°40' E 025°44'22 4.5 1022.3 23.6
2017-Dec-05 08:00S 34°33' E 026°10'5 5.1 1022.5 23.5
2017-Dec-05 07:00S 34°31' E 026°16'0 0.5 1022.1 23.4
2017-Dec-05 06:00S 34°31' E 026°16'3 3.5 1022.2 23.4
2017-Dec-05 05:00S 34°29' E 026°20'2 2.3 1022.0 23.3
2017-Dec-05 04:00S 34°28' E 026°22'1515.3 1021.6 23.3
2017-Dec-05 03:00S 34°19' E 026°37'0 0.0 1021.2 23.3
2017-Dec-05 02:00S 34°19' E 026°37'0 0.0 1021.2 23.3
2017-Dec-05 01:00S 34°19' E 026°37'0 0.0 1021.3 23.3
2017-Dec-05 00:00S 34°19' E 026°37'8 7.7 1021.9 23.3
2017-Dec-04 23:00S 34°14' E 026°45'3 1.5 1022.4 23.3
2017-Dec-04 21:00S 34°13' E 026°48'4 3.8 1023.4 23.3
2017-Dec-04 20:00S 34°10' E 026°52'2 2.3 1023.7 23.3
2017-Dec-04 19:00S 34°09' E 026°54'1 0.8 1023.3 23.3
2017-Dec-04 18:00S 34°08' E 026°55'6 6.2 1022.6 23.3
2017-Dec-04 17:00S 34°05' E 027°01'3 2.8 1022.2 23.3
2017-Dec-04 16:00S 34°04' E 027°04'3 2.7 1021.8 23.3
2017-Dec-04 15:00S 34°02' E 027°07'3 2.6 1021.6 23.3
2017-Dec-04 14:00S 34°02' E 027°10'0 0.0 1021.6 23.3
2017-Dec-04 13:00S 34°02' E 027°10'1414.3 1021.5 23.3
2017-Dec-04 12:00S 33°54' E 027°24'3 0.9 1021.5 23.3
2017-Dec-04 08:00S 33°52' E 027°27'3 1.4 1021.9 23.3
2017-Dec-04 06:00S 33°50' E 027°30'2 2.1 1021.3 23.4
2017-Dec-04 05:00S 33°49' E 027°31'1 1.2 1021.0 23.3
2017-Dec-04 04:00S 33°48' E 027°30'7 7.3 1020.6 23.3
2017-Dec-04 03:00S 33°44' E 027°37'0 0.0 1020.2 23.3
2017-Dec-04 01:00S 33°44' E 027°37'12 6.0 1019.6 23.3
2017-Dec-03 23:00S 33°35' E 027°47'0 0.0 1019.8 23.3
2017-Dec-03 21:00S 33°35' E 027°47'6 6.2 1020.2 23.2
2017-Dec-03 20:00S 33°32' E 027°53'0 0.0 1020.0 23.2
2017-Dec-03 19:00S 33°32' E 027°53'1 1.2 1019.5 23.1
2017-Dec-03 18:00S 33°31' E 027°55'4 3.5 1018.5 23.1
2017-Dec-03 17:00S 33°29' E 027°58'0 0.0 1017.9 23.1
2017-Dec-03 16:00S 33°29' E 027°58'7 7.4 1017.0 23.1
2017-Dec-03 15:00S 33°26' E 028°06'0 0.0 1016.0 23.2
2017-Dec-03 14:00S 33°26' E 028°06'10 9.7 1015.3 23.2
2017-Dec-03 13:00S 33°22' E 028°17'0 0.0 1015.0 23.2
2017-Dec-03 12:00S 33°22' E 028°17'0 0.0 1014.8 23.2
2017-Dec-03 11:00S 33°22' E 028°17'1 0.1 1014.4 23.3
2017-Dec-03 07:00S 33°22' E 028°17'2 1.9 1013.5 23.3
2017-Dec-03 06:00S 33°21' E 028°19'0 0.0 1013.1 23.3
2017-Dec-03 05:00S 33°21' E 028°19'4 3.6 1011.6 23.3
2017-Dec-03 04:00S 33°18' E 028°22'0 0.0 1010.5 23.4
2017-Dec-03 03:00S 33°18' E 028°22'0 0.0 1009.3 23.4
2017-Dec-03 02:00S 33°18' E 028°22'0 0.0 1008.6 23.5
2017-Dec-03 01:00S 33°18' E 028°22'2 2.3 1007.2 23.6
2017-Dec-03 00:00S 33°16' E 028°23'0 0.0 1006.5 23.6
2017-Dec-02 23:00S 33°16' E 028°23'9 4.5 1006.2 23.7
2017-Dec-02 21:00S 33°10' E 028°31'0 0.0 1005.3 23.8
2017-Dec-02 20:00S 33°10' E 028°31'1 1.2 1001.6 23.9
2017-Dec-02 19:00S 33°09' E 028°32'1 0.6 1006.3 24.0
2017-Dec-02 18:00S 33°08' E 028°32'10 5.0 1005.9 24.1
2017-Dec-02 16:00S 33°02' E 028°41'1 0.5 1002.9 24.2
2017-Dec-02 15:00S 33°02' E 028°41'0 0.0 1004.1 23.7
2017-Dec-02 14:00S 33°02' E 028°41'3 3.5 1002.9 23.7
2017-Dec-02 13:00S 32°59' E 028°44'0 0.0 1004.1 23.7
2017-Dec-02 12:00S 32°59' E 028°44'12 2.3 1004.4 23.7
2017-Dec-02 07:00S 32°52' E 028°55'3 3.1 1008.7 23.2
2017-Dec-02 06:00S 32°50' E 028°58'1 1.3 1009.0 23.2
2017-Dec-02 05:00S 32°49' E 028°58'1 1.2 1009.0 23.1
2017-Dec-02 04:00S 32°48' E 028°59'2 1.9 1008.7 23.1
2017-Dec-02 03:00S 32°47' E 029°01'2 2.4 1008.3 23.1
2017-Dec-02 02:00S 32°45' E 029°03'3 3.1 1009.1 23.1
2017-Dec-02 01:00S 32°43' E 029°05'0 0.0 1009.4 23.1
2017-Dec-02 00:00S 32°43' E 029°05'0 0.0 1010.0 23.1
2017-Dec-01 23:00S 32°43' E 029°05'8 2.6 1010.4 23.1
2017-Dec-01 20:00S 32°38' E 029°13'2 1.9 1012.5 23.0
2017-Dec-01 19:00S 32°37' E 029°14'4 3.9 1012.3 22.9
2017-Dec-01 18:00S 32°34' E 029°18'0 0.0 1011.0 22.9
2017-Dec-01 17:00S 32°34' E 029°18'3 2.8 1010.9 22.9
2017-Dec-01 16:00S 32°33' E 029°21'1 1.3 1010.2 22.8
2017-Dec-01 15:00S 32°32' E 029°22'1 0.5 1009.1 22.8
2017-Dec-01 14:00S 32°32' E 029°22'4 1.9 1009.2 22.8
2017-Dec-01 12:00S 32°29' E 029°26'10 2.0 1009.4 22.6
2017-Dec-01 07:00S 32°24' E 029°36'2 1.6 1011.1 22.7
2017-Dec-01 06:00S 32°23' E 029°38'1 0.5 1012.1 22.6
2017-Dec-01 05:00S 32°23' E 029°38'1 1.2 1012.4 22.7
2017-Dec-01 04:00S 32°23' E 029°40'2 2.4 1012.3 22.7
2017-Dec-01 03:00S 32°21' E 029°41'   1012.4 22.8
Track history (hours):
 
Tides and Currents Weather Stations Pressure Air Temp Water Temp Dewpoint Dewpoint Depression Visibility Wind Speed Wind Dir Waves Ship Positions

Drifting buoy 53520

Last reported at 2017-Dec-11 03:00 UTC. Time now 2017-Dec-11 04:14 UTC.
Position S 36°34' E 021°13'.

Barometer 1019.1 mb
Water temperature 19.6 ° C

Date/timePositionNaut miles runAvg speedWind from/ knotsBaromVisibWave heightAir tempDewpointWater temp
2017-Dec-11 03:00S 36°34' E 021°13'1 0.8 1019.1 19.6
2017-Dec-11 02:00S 36°34' E 021°13'1 0.8 1019.2 19.6
2017-Dec-11 01:00S 36°34' E 021°14'0 0.0 1019.8 19.6
2017-Dec-11 00:00S 36°34' E 021°14'0 0.5 1020.0 19.6
2017-Dec-10 23:00S 36°34' E 021°14'0 0.2 1020.6 19.7
2017-Dec-10 21:00S 36°34' E 021°15'1 0.8 1021.4 19.7
2017-Dec-10 20:00S 36°34' E 021°16'1 1.1 1022.0 19.7
2017-Dec-10 19:00S 36°34' E 021°17'0 0.5 1022.1 19.7
2017-Dec-10 18:00S 36°34' E 021°16'0 0.5 1022.2 19.7
2017-Dec-10 17:00S 36°34' E 021°17'1 0.8 1022.0 19.7
2017-Dec-10 16:00S 36°35' E 021°17'0 0.5 1021.8 19.7
2017-Dec-10 15:00S 36°35' E 021°18'0 0.0 1021.7 19.8
2017-Dec-10 14:00S 36°35' E 021°18'3 1.7 1021.9 19.9
2017-Dec-10 12:00S 36°35' E 021°22'2 0.4 1023.2 19.9
2017-Dec-10 07:00S 36°37' E 021°23'0 0.5 1024.8 19.5
2017-Dec-10 06:00S 36°37' E 021°23'1 0.6 1025.1 19.5
2017-Dec-10 05:00S 36°38' E 021°23'0 0.5 1024.8 19.5
2017-Dec-10 04:00S 36°38' E 021°24'1 0.8 1024.7 19.5
2017-Dec-10 03:00S 36°38' E 021°25'0 0.0 1024.6 19.5
2017-Dec-10 02:00S 36°38' E 021°25'1 1.2 1024.4 19.6
2017-Dec-10 01:00S 36°40' E 021°25'0 0.0 1024.5 19.6
2017-Dec-10 00:00S 36°40' E 021°25'0 0.0 1024.7 19.7
2017-Dec-09 23:00S 36°40' E 021°25'1 0.6 1025.2 19.7
2017-Dec-09 21:00S 36°41' E 021°25'1 0.6 1025.5 19.8
2017-Dec-09 20:00S 36°41' E 021°25'1 0.8 1025.6 19.9
2017-Dec-09 19:00S 36°41' E 021°25'1 0.8 1025.0 19.9
2017-Dec-09 18:00S 36°41' E 021°25'0 0.5 1024.5 20.0
2017-Dec-09 17:00S 36°41' E 021°26'1 0.6 1024.0 20.1
2017-Dec-09 16:00S 36°42' E 021°26'1 1.0 1023.4 20.2
2017-Dec-09 15:00S 36°42' E 021°27'1 0.6 1023.1 20.3
2017-Dec-09 14:00S 36°43' E 021°27'0 0.0 1022.9 20.4
2017-Dec-09 13:00S 36°43' E 021°27'0 0.0 1022.8 20.4
2017-Dec-09 12:00S 36°43' E 021°27'2 0.6 1022.7 20.4
2017-Dec-09 09:00S 36°44' E 021°29'2 1.9 1021.6 20.4
2017-Dec-09 08:00S 36°45' E 021°31'1 0.4 1021.1 20.2
2017-Dec-09 06:00S 36°46' E 021°30'1 1.1 1019.5 19.9
2017-Dec-09 05:00S 36°46' E 021°31'0 0.0 1018.3 19.8
2017-Dec-09 04:00S 36°46' E 021°31'1 1.1 1017.0 19.7
2017-Dec-09 03:00S 36°47' E 021°32'0 0.5 1015.7 19.6
2017-Dec-09 02:00S 36°47' E 021°33'0 0.5 1014.6 19.5
2017-Dec-09 01:00S 36°47' E 021°34'3 2.8 1014.0 19.4
2017-Dec-09 00:00S 36°44' E 021°35'1 0.4 1013.4 19.3
2017-Dec-08 21:00S 36°44' E 021°37'1 1.1 1012.1 19.5
2017-Dec-08 20:00S 36°43' E 021°38'1 1.1 1011.8 19.6
2017-Dec-08 19:00S 36°43' E 021°39'2 1.5 1011.2 19.8
2017-Dec-08 18:00S 36°41' E 021°40'1 1.1 1010.5 19.9
2017-Dec-08 17:00S 36°41' E 021°41'0 0.0 1010.5 20.3
2017-Dec-08 16:00S 36°41' E 021°41'1 1.3 1009.8 20.3
2017-Dec-08 15:00S 36°40' E 021°42'0 0.5 1010.4 20.2
2017-Dec-08 14:00S 36°40' E 021°43'1 1.2 1010.6 20.0
2017-Dec-08 13:00S 36°38' E 021°43'9 1.8 1010.9 19.8
2017-Dec-08 08:00S 36°30' E 021°47'1 1.3 1013.0 19.3
2017-Dec-08 07:00S 36°29' E 021°46'3 2.8 1012.6 19.0
2017-Dec-08 06:00S 36°26' E 021°48'1 0.6 1013.2 18.9
2017-Dec-08 05:00S 36°26' E 021°48'2 2.3 1013.5 18.8
2017-Dec-08 04:00S 36°24' E 021°50'2 2.4 1013.7 18.8
2017-Dec-08 03:00S 36°22' E 021°50'0 0.0 1013.8 18.8
2017-Dec-08 02:00S 36°22' E 021°50'13 6.4 1014.0 18.8
2017-Dec-08 00:00S 36°09' E 021°53'0 0.0 1015.0 18.9
2017-Dec-07 22:00S 36°09' E 021°53'0 0.0 1016.7 19.3
2017-Dec-07 21:00S 36°09' E 021°53'4 4.3 1016.8 19.3
2017-Dec-07 20:00S 36°05' E 021°54'4 3.7 1016.9 19.4
2017-Dec-07 19:00S 36°01' E 021°55'6 6.3 1016.6 19.5
2017-Dec-07 18:00S 35°55' E 021°58'0 0.0 1016.2 19.9
2017-Dec-07 17:00S 35°55' E 021°58'3 2.8 1015.5 20.2
2017-Dec-07 16:00S 35°53' E 021°59'1110.5 1015.4 20.5
2017-Dec-07 15:00S 35°44' E 022°07'0 0.0 1015.5 20.7
2017-Dec-07 14:00S 35°44' E 022°07'0 0.0 1016.1 21.0
2017-Dec-07 13:00S 35°44' E 022°07'0 0.0 1017.0 21.2
2017-Dec-07 12:00S 35°44' E 022°07'17 4.3 1017.7 21.3
2017-Dec-07 08:00S 35°32' E 022°22'0 0.0 1018.9 21.0
2017-Dec-07 07:00S 35°32' E 022°22'5 4.5 1018.7 21.0
2017-Dec-07 06:00S 35°29' E 022°26'0 0.0 1019.2 21.1
2017-Dec-07 05:00S 35°29' E 022°26'6 5.5 1019.1 21.2
2017-Dec-07 04:00S 35°28' E 022°32'3 3.4 1019.0 21.2
2017-Dec-07 03:00S 35°28' E 022°37'0 0.5 1018.9 21.5
2017-Dec-07 02:00S 35°28' E 022°36'6 5.7 1019.9 21.6
2017-Dec-07 01:00S 35°29' E 022°43'0 0.0 1020.1 21.8
2017-Dec-07 00:00S 35°29' E 022°43'17 5.7 1020.5 21.8
2017-Dec-06 21:00S 35°37' E 023°01'3 3.2 1022.5 21.4
2017-Dec-06 20:00S 35°38' E 023°05'5 5.0 1022.5 21.3
2017-Dec-06 19:00S 35°40' E 023°11'1413.7 1022.5 21.3
2017-Dec-06 18:00S 35°36' E 023°27'0 0.0 1022.1 21.2
2017-Dec-06 17:00S 35°36' E 023°27'7 3.4 1022.2 21.4
2017-Dec-06 15:00S 35°32' E 023°34'1010.2 1022.0 21.9
2017-Dec-06 14:00S 35°26' E 023°44'0 0.0 1022.3 22.4
2017-Dec-06 13:00S 35°26' E 023°44'37 5.3 1022.9 22.6
2017-Dec-06 06:00S 35°03' E 024°20'7 6.6 1025.2 23.2
2017-Dec-06 05:00S 35°01' E 024°28'1 1.0 1025.3 23.2
2017-Dec-06 04:00S 35°01' E 024°29'6 6.2 1025.2 23.2
2017-Dec-06 03:00S 34°59' E 024°36'7 6.5 1024.9 23.2
2017-Dec-06 02:00S 34°58' E 024°44'0 0.0 1024.8 23.3
2017-Dec-06 01:00S 34°58' E 024°44'7 7.4 1024.6 23.3
2017-Dec-06 00:00S 34°58' E 024°53'16 5.5 1024.9 23.4
2017-Dec-05 21:00S 34°53' E 025°12'0 0.0 1025.9 23.4
2017-Dec-05 20:00S 34°53' E 025°12'7 7.3 1025.6 23.5
2017-Dec-05 19:00S 34°50' E 025°20'1 0.8 1025.1 23.5
2017-Dec-05 18:00S 34°50' E 025°21'8 8.2 1024.1 23.6
2017-Dec-05 17:00S 34°46' E 025°30'2 2.3 1023.5 23.6
2017-Dec-05 16:00S 34°45' E 025°32'8 8.1 1022.8 23.6
2017-Dec-05 15:00S 34°41' E 025°41'3 3.0 1022.2 23.6
2017-Dec-05 14:00S 34°40' E 025°44'0 0.0 1022.3 23.6
2017-Dec-05 13:00S 34°40' E 025°44'22 4.5 1022.3 23.6
2017-Dec-05 08:00S 34°33' E 026°10'5 5.1 1022.5 23.5
2017-Dec-05 07:00S 34°31' E 026°16'0 0.5 1022.1 23.4
2017-Dec-05 06:00S 34°31' E 026°16'3 3.5 1022.2 23.4
2017-Dec-05 05:00S 34°29' E 026°20'2 2.3 1022.0 23.3
2017-Dec-05 04:00S 34°28' E 026°22'1515.3 1021.6 23.3
2017-Dec-05 03:00S 34°19' E 026°37'0 0.0 1021.2 23.3
2017-Dec-05 02:00S 34°19' E 026°37'0 0.0 1021.2 23.3
2017-Dec-05 01:00S 34°19' E 026°37'0 0.0 1021.3 23.3
2017-Dec-05 00:00S 34°19' E 026°37'8 7.7 1021.9 23.3
2017-Dec-04 23:00S 34°14' E 026°45'3 1.5 1022.4 23.3
2017-Dec-04 21:00S 34°13' E 026°48'4 3.8 1023.4 23.3
2017-Dec-04 20:00S 34°10' E 026°52'2 2.3 1023.7 23.3
2017-Dec-04 19:00S 34°09' E 026°54'1 0.8 1023.3 23.3
2017-Dec-04 18:00S 34°08' E 026°55'6 6.2 1022.6 23.3
2017-Dec-04 17:00S 34°05' E 027°01'3 2.8 1022.2 23.3
2017-Dec-04 16:00S 34°04' E 027°04'3 2.7 1021.8 23.3
2017-Dec-04 15:00S 34°02' E 027°07'3 2.6 1021.6 23.3
2017-Dec-04 14:00S 34°02' E 027°10'0 0.0 1021.6 23.3
2017-Dec-04 13:00S 34°02' E 027°10'1414.3 1021.5 23.3
2017-Dec-04 12:00S 33°54' E 027°24'3 0.9 1021.5 23.3
2017-Dec-04 08:00S 33°52' E 027°27'3 1.4 1021.9 23.3
2017-Dec-04 06:00S 33°50' E 027°30'2 2.1 1021.3 23.4
2017-Dec-04 05:00S 33°49' E 027°31'1 1.2 1021.0 23.3
2017-Dec-04 04:00S 33°48' E 027°30'7 7.3 1020.6 23.3
2017-Dec-04 03:00S 33°44' E 027°37'0 0.0 1020.2 23.3
2017-Dec-04 01:00S 33°44' E 027°37'12 6.0 1019.6 23.3
2017-Dec-03 23:00S 33°35' E 027°47'0 0.0 1019.8 23.3
2017-Dec-03 21:00S 33°35' E 027°47'6 6.2 1020.2 23.2
2017-Dec-03 20:00S 33°32' E 027°53'0 0.0 1020.0 23.2
2017-Dec-03 19:00S 33°32' E 027°53'1 1.2 1019.5 23.1
2017-Dec-03 18:00S 33°31' E 027°55'4 3.5 1018.5 23.1
2017-Dec-03 17:00S 33°29' E 027°58'0 0.0 1017.9 23.1
2017-Dec-03 16:00S 33°29' E 027°58'7 7.4 1017.0 23.1
2017-Dec-03 15:00S 33°26' E 028°06'0 0.0 1016.0 23.2
2017-Dec-03 14:00S 33°26' E 028°06'10 9.7 1015.3 23.2
2017-Dec-03 13:00S 33°22' E 028°17'0 0.0 1015.0 23.2
2017-Dec-03 12:00S 33°22' E 028°17'0 0.0 1014.8 23.2
2017-Dec-03 11:00S 33°22' E 028°17'1 0.1 1014.4 23.3
2017-Dec-03 07:00S 33°22' E 028°17'2 1.9 1013.5 23.3
2017-Dec-03 06:00S 33°21' E 028°19'0 0.0 1013.1 23.3
2017-Dec-03 05:00S 33°21' E 028°19'4 3.6 1011.6 23.3
2017-Dec-03 04:00S 33°18' E 028°22'0 0.0 1010.5 23.4
2017-Dec-03 03:00S 33°18' E 028°22'0 0.0 1009.3 23.4
2017-Dec-03 02:00S 33°18' E 028°22'0 0.0 1008.6 23.5
2017-Dec-03 01:00S 33°18' E 028°22'2 2.3 1007.2 23.6
2017-Dec-03 00:00S 33°16' E 028°23'0 0.0 1006.5 23.6
2017-Dec-02 23:00S 33°16' E 028°23'9 4.5 1006.2 23.7
2017-Dec-02 21:00S 33°10' E 028°31'0 0.0 1005.3 23.8
2017-Dec-02 20:00S 33°10' E 028°31'1 1.2 1001.6 23.9
2017-Dec-02 19:00S 33°09' E 028°32'1 0.6 1006.3 24.0
2017-Dec-02 18:00S 33°08' E 028°32'10 5.0 1005.9 24.1
2017-Dec-02 16:00S 33°02' E 028°41'1 0.5 1002.9 24.2
2017-Dec-02 15:00S 33°02' E 028°41'0 0.0 1004.1 23.7
2017-Dec-02 14:00S 33°02' E 028°41'3 3.5 1002.9 23.7
2017-Dec-02 13:00S 32°59' E 028°44'0 0.0 1004.1 23.7
2017-Dec-02 12:00S 32°59' E 028°44'12 2.3 1004.4 23.7
2017-Dec-02 07:00S 32°52' E 028°55'3 3.1 1008.7 23.2
2017-Dec-02 06:00S 32°50' E 028°58'1 1.3 1009.0 23.2
2017-Dec-02 05:00S 32°49' E 028°58'1 1.2 1009.0 23.1
2017-Dec-02 04:00S 32°48' E 028°59'2 1.9 1008.7 23.1
2017-Dec-02 03:00S 32°47' E 029°01'2 2.4 1008.3 23.1
2017-Dec-02 02:00S 32°45' E 029°03'3 3.1 1009.1 23.1
2017-Dec-02 01:00S 32°43' E 029°05'0 0.0 1009.4 23.1
2017-Dec-02 00:00S 32°43' E 029°05'0 0.0 1010.0 23.1
2017-Dec-01 23:00S 32°43' E 029°05'8 2.6 1010.4 23.1
2017-Dec-01 20:00S 32°38' E 029°13'2 1.9 1012.5 23.0
2017-Dec-01 19:00S 32°37' E 029°14'4 3.9 1012.3 22.9
2017-Dec-01 18:00S 32°34' E 029°18'0 0.0 1011.0 22.9
2017-Dec-01 17:00S 32°34' E 029°18'3 2.8 1010.9 22.9
2017-Dec-01 16:00S 32°33' E 029°21'1 1.3 1010.2 22.8
2017-Dec-01 15:00S 32°32' E 029°22'1 0.5 1009.1 22.8
2017-Dec-01 14:00S 32°32' E 029°22'4 1.9 1009.2 22.8
2017-Dec-01 12:00S 32°29' E 029°26'10 2.0 1009.4 22.6
2017-Dec-01 07:00S 32°24' E 029°36'2 1.6 1011.1 22.7
2017-Dec-01 06:00S 32°23' E 029°38'1 0.5 1012.1 22.6
2017-Dec-01 05:00S 32°23' E 029°38'1 1.2 1012.4 22.7
2017-Dec-01 04:00S 32°23' E 029°40'2 2.4 1012.3 22.7
2017-Dec-01 03:00S 32°21' E 029°41'   1012.4 22.8

Dump ship's entire track history